Terminal Aerodrome Forecast
Issued by NWS

Home | Current Version | Previous Version | Graphics & Text | Print | Product List | Glossary On
Versions: 1 2 3 4 5 6 7 8 9 10 11 12 13 14 15 16 17 18 19 20 21 22 23 24 25
000
FTUS43 KLOT 152101 AAA
TAFDPA
TAF AMD
KDPA 152101Z 1521/1618 33011KT 5SM BR SCT009 BKN250
     FM152300 32005KT 4SM BR SCT009 BKN090
     FM160100 33008KT 5SM BR SCT010 BKN070
     FM160500 32014G19KT P6SM BKN015 OVC025
     FM161400 32012KT P6SM SCT025=

USA.gov is the U.S. government's official web portal to all federal, state and local government web resources and services.